Time;durP1;ratioP1;P1;durP2;ratioP2;P2;SDS_P1;SDS_P2;PMS_P1;PMS_P2;Temp;Humidity;BMP_temperature;BMP_pressure;BME280_temperature;BME280_humidity;BME280_pressure;Samples;Min_cycle;Max_cycle;Signal;HPM_P1;HPM_P2
2019/07/03 00:02:21;;;;;;;10.7;6.9;;;;;;;19.53;79.4873;941.0239;;;;
2019/07/03 00:04:54;;;;;;;13.1;7.4;;;;;;;19.5;79.58691;941.0834;;;;
2019/07/03 00:07:20;;;;;;;10;7.8;;;;;;;19.51;79.28613;941.0009;;;;
2019/07/03 00:09:47;;;;;;;11;7.7;;;;;;;19.45;79.60059;940.9649;;;;
2019/07/03 00:12:14;;;;;;;14.9;7.5;;;;;;;19.45;78.9834;940.948;;;;
2019/07/03 00:14:43;;;;;;;10.3;7.7;;;;;;;19.51;79.50684;940.9015;;;;
2019/07/03 00:17:06;;;;;;;10.2;7.3;;;;;;;19.53;79.24414;940.9373;;;;
2019/07/03 00:19:30;;;;;;;11;7.4;;;;;;;19.42;79.1416;940.8823;;;;
2019/07/03 00:21:55;;;;;;;11.6;7.6;;;;;;;19.28;79.06934;940.8187;;;;
2019/07/03 00:24:24;;;;;;;8.9;7.4;;;;;;;19.23;79.50391;940.8116;;;;
2019/07/03 00:26:58;;;;;;;11.9;7.8;;;;;;;19.24;79.55176;940.7679;;;;
2019/07/03 00:29:18;;;;;;;10.5;7.7;;;;;;;19.12;80.18262;940.774;;;;
2019/07/03 00:31:47;;;;;;;8.5;7.6;;;;;;;19.21;79.84766;940.7972;;;;
2019/07/03 00:34:15;;;;;;;10.3;7.3;;;;;;;19.16;80.19043;940.7812;;;;
2019/07/03 00:36:38;;;;;;;11;7.8;;;;;;;19.17;79.72461;940.7673;;;;
2019/07/03 00:39:05;;;;;;;11.2;7.9;;;;;;;19.09;79.32813;940.8374;;;;
2019/07/03 00:41:31;;;;;;;10.5;8.2;;;;;;;18.98;79.76172;940.8117;;;;
2019/07/03 00:43:54;;;;;;;11.6;7.9;;;;;;;18.8;80.76465;940.8471;;;;
2019/07/03 00:46:19;;;;;;;11.5;7.4;;;;;;;18.58;81.24707;940.8699;;;;
2019/07/03 00:48:47;;;;;;;10.1;7.6;;;;;;;18.47;81.43652;940.9088;;;;
2019/07/03 00:51:13;;;;;;;10.8;8.3;;;;;;;18.47;81.50488;940.9395;;;;
2019/07/03 00:53:38;;;;;;;13;9;;;;;;;18.41;82.21484;940.9328;;;;
2019/07/03 00:56:04;;;;;;;9;8;;;;;;;18.4;82.37793;940.8692;;;;
2019/07/03 00:58:31;;;;;;;10.9;8.5;;;;;;;18.51;82.07129;940.8911;;;;
2019/07/03 01:00:54;;;;;;;10.6;8.9;;;;;;;18.53;81.9834;940.8714;;;;
2019/07/03 01:03:19;;;;;;;11.2;8.7;;;;;;;18.6;81.37793;940.9534;;;;
2019/07/03 01:05:46;;;;;;;11.6;8.6;;;;;;;18.61;81.55469;940.8998;;;;
2019/07/03 01:08:16;;;;;;;12.9;8.6;;;;;;;18.56;81.91797;940.8845;;;;
2019/07/03 01:10:41;;;;;;;11.2;8.7;;;;;;;18.41;82.13379;940.8087;;;;
2019/07/03 01:13:13;;;;;;;11;9.7;;;;;;;18.34;82.79492;940.7526;;;;
2019/07/03 01:15:49;;;;;;;13.4;9.7;;;;;;;18.23;83.04102;940.8479;;;;
2019/07/03 01:18:07;;;;;;;10.8;8.9;;;;;;;18.19;82.58105;940.7361;;;;
2019/07/03 01:20:37;;;;;;;10.6;8.9;;;;;;;18.16;82.55176;940.8044;;;;
2019/07/03 01:23:03;;;;;;;12.6;9.8;;;;;;;18.14;82.65234;940.7338;;;;
2019/07/03 01:25:31;;;;;;;13.4;9.5;;;;;;;18.17;82.41504;940.8114;;;;
2019/07/03 01:27:59;;;;;;;11.4;9.6;;;;;;;18.25;82.22168;940.8491;;;;
2019/07/03 01:30:23;;;;;;;13.7;9.6;;;;;;;18.26;82.30469;940.874;;;;
2019/07/03 01:32:55;;;;;;;12.4;9.2;;;;;;;18.27;82.1084;940.7997;;;;
2019/07/03 01:35:17;;;;;;;12.1;9.4;;;;;;;18.26;82.04688;940.8144;;;;
2019/07/03 01:37:49;;;;;;;12.3;9.8;;;;;;;18.2;82.30469;940.9366;;;;
2019/07/03 01:40:11;;;;;;;13;9.9;;;;;;;18.19;82.29102;940.8948;;;;
2019/07/03 01:42:36;;;;;;;13.2;10.4;;;;;;;18.12;83.00977;940.9299;;;;
2019/07/03 01:45:03;;;;;;;10.2;9.1;;;;;;;18.1;82.66895;940.9487;;;;
2019/07/03 01:47:28;;;;;;;10.7;9.1;;;;;;;18.09;82.12109;940.9545;;;;
2019/07/03 01:50:00;;;;;;;13.7;9.5;;;;;;;17.99;82.26563;940.9702;;;;
2019/07/03 01:52:30;;;;;;;13.1;9.7;;;;;;;17.91;82.79785;940.9883;;;;
2019/07/03 01:55:00;;;;;;;10.6;9.3;;;;;;;17.91;82.50781;940.9625;;;;
2019/07/03 01:57:29;;;;;;;11.7;9;;;;;;;17.75;82.60449;940.9556;;;;
2019/07/03 02:00:35;;;;;;;13.6;9.5;;;;;;;17.73;82.91504;940.988;;;;
2019/07/03 02:03:00;;;;;;;11.4;9.2;;;;;;;17.7;82.9082;940.962;;;;
2019/07/03 02:05:31;;;;;;;13.1;10.1;;;;;;;17.65;83.53613;941.092;;;;
2019/07/03 02:07:56;;;;;;;13.1;9.8;;;;;;;17.73;83.26074;941.0356;;;;
2019/07/03 02:10:22;;;;;;;12.3;9.3;;;;;;;17.84;83.08398;941.0708;;;;
2019/07/03 02:12:55;;;;;;;10.3;9.2;;;;;;;17.85;83.30664;941.0947;;;;
2019/07/03 02:15:22;;;;;;;12.6;9.5;;;;;;;17.86;83.58691;941.0552;;;;
2019/07/03 02:17:47;;;;;;;12;9.6;;;;;;;18.05;83.2168;941.0494;;;;
2019/07/03 02:20:17;;;;;;;10.6;9.4;;;;;;;18.16;83.27148;941.1397;;;;
2019/07/03 02:22:42;;;;;;;12;9.6;;;;;;;18.14;83.89746;941.1286;;;;
2019/07/03 02:25:10;;;;;;;11.1;10;;;;;;;18.17;84.33105;941.1;;;;
2019/07/03 02:27:42;;;;;;;11.1;9.9;;;;;;;18.2;84.18652;941.135;;;;
2019/07/03 02:30:10;;;;;;;11.3;9.1;;;;;;;18.21;83.80469;941.1976;;;;
2019/07/03 02:32:41;;;;;;;12.3;9.1;;;;;;;18.26;83.3252;941.1409;;;;
2019/07/03 02:35:11;;;;;;;10;8.8;;;;;;;18.24;83.25391;941.1467;;;;
2019/07/03 02:37:36;;;;;;;8.9;7.9;;;;;;;18.09;83.71289;941.2164;;;;
2019/07/03 02:40:02;;;;;;;11.9;9.2;;;;;;;18.18;83.32324;941.1537;;;;
2019/07/03 02:42:28;;;;;;;13.5;9.4;;;;;;;18.18;83.46289;941.128;;;;
2019/07/03 02:44:55;;;;;;;11.5;9.1;;;;;;;18.11;83.94824;941.1501;;;;
2019/07/03 02:47:25;;;;;;;11.6;8.6;;;;;;;18.02;84.62793;941.182;;;;
2019/07/03 02:49:50;;;;;;;13.6;9.3;;;;;;;17.96;84.92969;941.198;;;;
2019/07/03 02:52:24;;;;;;;9.5;8.5;;;;;;;18.07;84.39453;941.2539;;;;
2019/07/03 02:54:41;;;;;;;11.8;8.6;;;;;;;17.92;84.5625;941.2541;;;;
2019/07/03 02:57:11;;;;;;;11.9;9.2;;;;;;;18.1;84.26074;941.2711;;;;
2019/07/03 02:59:42;;;;;;;9.6;8.5;;;;;;;17.93;84.64551;941.2184;;;;
2019/07/03 03:02:08;;;;;;;12.4;9;;;;;;;17.99;84.89063;941.2845;;;;
2019/07/03 03:04:33;;;;;;;12.2;8.4;;;;;;;17.91;85.04883;941.2123;;;;
2019/07/03 03:06:58;;;;;;;12.6;8.4;;;;;;;18.15;83.72363;941.2269;;;;
2019/07/03 03:09:28;;;;;;;11.1;8.5;;;;;;;18.29;83.37891;941.2533;;;;
2019/07/03 03:11:52;;;;;;;11.1;8;;;;;;;18.37;82.99902;941.2262;;;;
2019/07/03 03:14:25;;;;;;;9.9;7.9;;;;;;;18.27;83.39648;941.256;;;;
2019/07/03 03:16:51;;;;;;;10.5;8.4;;;;;;;18.2;83.9082;941.2551;;;;
2019/07/03 03:19:26;;;;;;;12.6;8.5;;;;;;;18.29;83.33105;941.288;;;;
2019/07/03 03:22:18;;;;;;;10.3;7.9;;;;;;;18.17;83.87988;941.2371;;;;
2019/07/03 03:24:44;;;;;;;11.8;8.8;;;;;;;18.3;83.77539;941.291;;;;
2019/07/03 03:27:19;;;;;;;10.3;7.9;;;;;;;18.24;83.90527;941.3273;;;;
2019/07/03 03:29:41;;;;;;;11.4;7.7;;;;;;;18.28;83.60742;941.3276;;;;
2019/07/03 03:32:06;;;;;;;10.1;6.4;;;;;;;18.15;82.74707;941.33;;;;
2019/07/03 03:34:38;;;;;;;9.2;6.4;;;;;;;18.14;82.44531;941.335;;;;
2019/07/03 03:36:59;;;;;;;7.5;5.2;;;;;;;18.19;81.54688;941.2778;;;;
2019/07/03 03:39:26;;;;;;;10.2;6.1;;;;;;;18.08;81.79297;941.3987;;;;
2019/07/03 03:41:51;;;;;;;10.9;5.6;;;;;;;18.19;80.47949;941.4148;;;;
2019/07/03 03:44:21;;;;;;;8.6;4.6;;;;;;;18.27;77.5293;941.3713;;;;
2019/07/03 03:46:44;;;;;;;8.1;5.1;;;;;;;18.42;80.07813;941.3755;;;;
2019/07/03 03:49:09;;;;;;;7.3;4.9;;;;;;;18.27;79.63184;941.3334;;;;
2019/07/03 03:51:33;;;;;;;6.2;4.4;;;;;;;18.41;77.84375;941.3714;;;;
2019/07/03 03:54:04;;;;;;;8;4.6;;;;;;;18.48;77.06641;941.4191;;;;
2019/07/03 03:56:25;;;;;;;7.1;4.3;;;;;;;18.51;77.49121;941.4153;;;;
2019/07/03 03:58:55;;;;;;;7.8;4.5;;;;;;;18.52;78.08594;941.4014;;;;
2019/07/03 04:02:33;;;;;;;6.9;4;;;;;;;18.55;76.54395;941.4711;;;;
2019/07/03 04:05:02;;;;;;;9.2;5;;;;;;;18.59;78.15527;941.4665;;;;
2019/07/03 04:07:30;;;;;;;8;4.4;;;;;;;18.61;75.97168;941.5203;;;;
2019/07/03 04:09:58;;;;;;;8.4;4.9;;;;;;;18.6;79.0293;941.5341;;;;
2019/07/03 04:12:32;;;;;;;5.7;4.4;;;;;;;18.61;78.90234;941.5024;;;;
2019/07/03 04:14:58;;;;;;;6.7;4.8;;;;;;;18.63;79.03516;941.5181;;;;
2019/07/03 04:17:27;;;;;;;5.2;4.4;;;;;;;18.61;79.06543;941.5452;;;;
2019/07/03 04:19:54;;;;;;;8.3;4.5;;;;;;;18.66;78.04004;941.4587;;;;
2019/07/03 04:22:23;;;;;;;6.6;4.6;;;;;;;18.59;78.80664;941.5569;;;;
2019/07/03 04:24:47;;;;;;;8.7;4.7;;;;;;;18.55;76.54395;941.5446;;;;
2019/07/03 04:27:15;;;;;;;5.5;4.2;;;;;;;18.56;76.85938;941.5864;;;;
2019/07/03 04:29:41;;;;;;;8.2;4.8;;;;;;;18.59;76.86426;941.6125;;;;
2019/07/03 04:32:06;;;;;;;8;4.8;;;;;;;18.58;76.11816;941.5876;;;;
2019/07/03 04:34:33;;;;;;;9.4;5.3;;;;;;;18.68;76.09082;941.4986;;;;
2019/07/03 04:37:00;;;;;;;7.4;4.7;;;;;;;18.78;75.5957;941.5251;;;;
2019/07/03 04:39:26;;;;;;;7.2;5.4;;;;;;;18.94;74.96973;941.3767;;;;
2019/07/03 04:41:52;;;;;;;8.5;5.3;;;;;;;18.87;74.39941;941.4288;;;;
2019/07/03 04:44:21;;;;;;;8.3;5.1;;;;;;;18.81;75.4707;941.4489;;;;
2019/07/03 04:46:51;;;;;;;6.8;5.3;;;;;;;18.74;76.62207;941.4792;;;;
2019/07/03 04:49:17;;;;;;;9;5.9;;;;;;;18.76;77.24316;941.4545;;;;
2019/07/03 04:51:47;;;;;;;8.3;5.9;;;;;;;18.77;76.76758;941.4835;;;;
2019/07/03 04:54:21;;;;;;;7.4;5.9;;;;;;;18.68;78.19629;941.4639;;;;
2019/07/03 04:56:42;;;;;;;7.6;6;;;;;;;18.7;77.60547;941.4144;;;;
2019/07/03 04:59:14;;;;;;;12.5;6.5;;;;;;;18.74;76.90137;941.4573;;;;
2019/07/03 05:01:35;;;;;;;11.1;6.3;;;;;;;18.73;77.23828;941.4583;;;;
2019/07/03 05:04:01;;;;;;;9.6;6.2;;;;;;;18.88;76.90332;941.5352;;;;
2019/07/03 05:06:29;;;;;;;8.2;6.2;;;;;;;18.96;76.86035;941.5675;;;;
2019/07/03 05:08:56;;;;;;;9.5;5.5;;;;;;;19.1;74.78711;941.6204;;;;
2019/07/03 05:11:24;;;;;;;9.1;5.1;;;;;;;19.02;74.59961;941.5951;;;;
2019/07/03 05:13:51;;;;;;;6.1;4.5;;;;;;;18.97;71.69238;941.657;;;;
2019/07/03 05:16:17;;;;;;;10.1;4.8;;;;;;;19.08;71.52344;941.6958;;;;
2019/07/03 05:18:50;;;;;;;7.7;5;;;;;;;19.16;73.95898;941.6943;;;;
2019/07/03 05:21:21;;;;;;;8;4.9;;;;;;;19.18;73.2168;941.6964;;;;
2019/07/03 05:23:49;;;;;;;7.4;5.4;;;;;;;19.24;73.8457;941.6802;;;;
2019/07/03 05:26:14;;;;;;;6.9;4.8;;;;;;;19.3;72.77148;941.7283;;;;
2019/07/03 05:28:40;;;;;;;6.5;4.3;;;;;;;19.14;67.99414;941.6842;;;;
2019/07/03 05:31:07;;;;;;;8.8;3.9;;;;;;;19.3;66.58496;941.7162;;;;
2019/07/03 05:33:31;;;;;;;6.8;3.4;;;;;;;19.47;66.4834;941.622;;;;
2019/07/03 05:36:03;;;;;;;7.1;3.6;;;;;;;19.6;63.22754;941.5535;;;;
2019/07/03 05:38:28;;;;;;;5.3;3;;;;;;;19.83;66.01367;941.4863;;;;
2019/07/03 05:41:02;;;;;;;6.6;3;;;;;;;20.28;61.33887;941.5248;;;;
2019/07/03 05:43:21;;;;;;;7.3;3;;;;;;;20.42;59.53711;941.5585;;;;
2019/07/03 05:45:47;;;;;;;6.5;3.1;;;;;;;20.73;59.11133;941.5879;;;;
2019/07/03 05:48:13;;;;;;;5.9;3.2;;;;;;;20.57;63.45898;941.5228;;;;
2019/07/03 05:50:39;;;;;;;4.9;2.7;;;;;;;20.57;62.52441;941.5527;;;;
2019/07/03 05:53:07;;;;;;;5.9;2.8;;;;;;;20.79;62.96484;941.5022;;;;
2019/07/03 05:55:34;;;;;;;6.2;2.9;;;;;;;20.74;61.11133;941.5092;;;;
2019/07/03 05:58:01;;;;;;;4.9;3.3;;;;;;;20.78;61.04688;941.568;;;;
2019/07/03 06:00:30;;;;;;;8.2;2.8;;;;;;;20.91;59.28613;941.5483;;;;
2019/07/03 06:03:09;;;;;;;6.5;2.7;;;;;;;21.16;58.61914;941.5922;;;;
2019/07/03 06:05:30;;;;;;;8.8;2.7;;;;;;;21.12;58.70801;941.6062;;;;
2019/07/03 06:07:53;;;;;;;5.1;2.6;;;;;;;21.27;58.5166;941.5616;;;;
2019/07/03 06:10:18;;;;;;;4.1;2.8;;;;;;;21;61.7666;941.5612;;;;
2019/07/03 06:12:45;;;;;;;4.8;2.7;;;;;;;21.2;58.60059;941.5442;;;;
2019/07/03 06:15:14;;;;;;;5.4;2.7;;;;;;;21.25;56.33887;941.6195;;;;
2019/07/03 06:17:47;;;;;;;4.1;2.8;;;;;;;21.05;56.28906;941.5893;;;;
2019/07/03 06:20:15;;;;;;;5.7;2.8;;;;;;;21.03;56.48438;941.5883;;;;
2019/07/03 06:22:37;;;;;;;5.8;2.8;;;;;;;20.81;60.49023;941.6506;;;;
2019/07/03 06:25:02;;;;;;;5.6;2.8;;;;;;;20.94;61.04492;941.6559;;;;
2019/07/03 06:27:27;;;;;;;4.4;2.6;;;;;;;20.85;61.42969;941.7017;;;;
2019/07/03 06:29:54;;;;;;;6;2.9;;;;;;;20.73;59.91895;941.6955;;;;
2019/07/03 06:32:17;;;;;;;5;3;;;;;;;20.83;59.40527;941.64;;;;
2019/07/03 06:34:43;;;;;;;5.9;2.7;;;;;;;21.17;60.63281;941.7037;;;;
2019/07/03 06:37:08;;;;;;;5.1;2.8;;;;;;;21.56;57.84082;941.6839;;;;
2019/07/03 06:39:35;;;;;;;4;2.5;;;;;;;21.76;56.80176;941.7424;;;;
2019/07/03 06:41:59;;;;;;;4.1;2.6;;;;;;;21.58;57.04785;941.7447;;;;
2019/07/03 06:44:33;;;;;;;6.2;2.8;;;;;;;21.58;57.80762;941.6808;;;;
2019/07/03 06:47:00;;;;;;;15;3.5;;;;;;;21.7;56.92285;941.8194;;;;
2019/07/03 06:49:26;;;;;;;7.7;2.6;;;;;;;21.66;55.52441;941.8425;;;;
2019/07/03 06:51:54;;;;;;;6.5;2.5;;;;;;;21.7;53.67773;941.8284;;;;
2019/07/03 06:54:21;;;;;;;5.7;2.7;;;;;;;21.51;57.2373;941.7628;;;;
2019/07/03 06:56:45;;;;;;;7;2.6;;;;;;;21.46;55.15918;941.8906;;;;
2019/07/03 06:59:10;;;;;;;5.7;2.6;;;;;;;21.61;54.96582;941.7805;;;;
2019/07/03 07:01:36;;;;;;;10.5;2.7;;;;;;;21.54;55.90625;941.7977;;;;
2019/07/03 07:04:02;;;;;;;11.3;3;;;;;;;21.27;57.81445;941.8547;;;;
2019/07/03 07:06:30;;;;;;;5.7;2.5;;;;;;;21.18;57.94336;941.9091;;;;
2019/07/03 07:08:57;;;;;;;5.3;2.6;;;;;;;21.01;58.96191;941.8412;;;;
2019/07/03 07:11:25;;;;;;;5.4;2.9;;;;;;;21.1;57.95703;941.8892;;;;
2019/07/03 07:13:50;;;;;;;5.2;2.8;;;;;;;21.02;57.56055;941.9648;;;;
2019/07/03 07:16:17;;;;;;;6.8;2.5;;;;;;;20.97;56.48926;941.9628;;;;
2019/07/03 07:18:45;;;;;;;4.2;2.5;;;;;;;21.07;58.78418;941.8933;;;;
2019/07/03 07:21:24;;;;;;;4.7;2.5;;;;;;;20.89;58.91113;941.9;;;;
2019/07/03 07:23:47;;;;;;;4.4;2.4;;;;;;;20.96;55.50586;941.903;;;;
2019/07/03 07:26:23;;;;;;;4.3;2.4;;;;;;;20.96;55.28418;941.877;;;;
2019/07/03 07:28:45;;;;;;;5.8;2.3;;;;;;;20.97;55.98633;941.9369;;;;
2019/07/03 07:31:15;;;;;;;5.4;2.2;;;;;;;20.98;58.05762;941.9269;;;;
2019/07/03 07:33:39;;;;;;;6;2.3;;;;;;;21.27;56.76074;941.8947;;;;
2019/07/03 07:36:03;;;;;;;4.5;2.3;;;;;;;21.37;53.33301;941.8636;;;;
2019/07/03 07:38:28;;;;;;;4.1;2.2;;;;;;;22.35;52.93457;941.9285;;;;
2019/07/03 07:40:56;;;;;;;4.2;2.4;;;;;;;22.88;51.25977;941.8782;;;;
2019/07/03 07:43:24;;;;;;;4.1;2.3;;;;;;;23.48;50.30664;941.8506;;;;
2019/07/03 07:45:57;;;;;;;4.8;2.2;;;;;;;23.31;52.76758;941.827;;;;
2019/07/03 07:48:36;;;;;;;5.6;2.2;;;;;;;23.51;52.27344;941.7944;;;;
2019/07/03 07:50:59;;;;;;;7;2.5;;;;;;;23.91;50.73145;941.8428;;;;
2019/07/03 07:53:23;;;;;;;6.9;2.5;;;;;;;23.88;50.50488;941.8682;;;;
2019/07/03 07:55:54;;;;;;;6.3;2.4;;;;;;;23.83;49.58008;941.9019;;;;
2019/07/03 07:58:16;;;;;;;5.3;2.1;;;;;;;23.46;48.65723;941.9059;;;;
2019/07/03 08:00:45;;;;;;;4.4;2.5;;;;;;;23.3;49.21582;941.8722;;;;
2019/07/03 08:03:11;;;;;;;7.4;2.6;;;;;;;23.29;49.90918;941.8513;;;;
2019/07/03 08:05:35;;;;;;;4.9;2.5;;;;;;;24.04;48.78027;941.7935;;;;
2019/07/03 08:07:59;;;;;;;4.9;2.5;;;;;;;24.55;46.36035;941.8076;;;;
2019/07/03 08:10:33;;;;;;;5.7;2.6;;;;;;;24.75;48.18555;941.818;;;;
2019/07/03 08:13:00;;;;;;;7.1;2.3;;;;;;;25.32;47.14941;941.7868;;;;
2019/07/03 08:15:31;;;;;;;6.2;2.3;;;;;;;25.56;48.50879;941.7908;;;;
2019/07/03 08:18:02;;;;;;;5.3;2.1;;;;;;;26.22;46.78223;941.7881;;;;
2019/07/03 08:20:23;;;;;;;5.8;2.4;;;;;;;26.78;43.23926;941.7469;;;;
2019/07/03 08:22:50;;;;;;;4;2;;;;;;;26.91;42.19727;941.7662;;;;
2019/07/03 08:25:22;;;;;;;5.7;2.1;;;;;;;26.71;43.44531;941.7706;;;;
2019/07/03 08:27:52;;;;;;;4.1;2.1;;;;;;;26.51;43.99512;941.8531;;;;
2019/07/03 08:30:20;;;;;;;5.4;2.3;;;;;;;26.78;43.56055;941.807;;;;
2019/07/03 08:32:49;;;;;;;4.1;2.1;;;;;;;26.82;43.44531;941.8182;;;;
2019/07/03 08:35:20;;;;;;;4.9;2.3;;;;;;;26.12;44.69043;941.8686;;;;
2019/07/03 08:37:41;;;;;;;6.2;2.5;;;;;;;25.93;45.53418;941.8189;;;;
2019/07/03 08:40:06;;;;;;;8.7;2.6;;;;;;;25.72;47.35547;941.8326;;;;
2019/07/03 08:42:30;;;;;;;4.8;2.6;;;;;;;25.42;48.16406;941.7369;;;;
2019/07/03 08:44:56;;;;;;;5.3;2.1;;;;;;;25.41;48.19727;941.7612;;;;
2019/07/03 08:47:27;;;;;;;6;2.2;;;;;;;25.62;48.69238;941.7165;;;;
2019/07/03 08:50:00;;;;;;;3.9;2.3;;;;;;;25.7;46.68066;941.7709;;;;
2019/07/03 08:52:26;;;;;;;5.6;2.3;;;;;;;25.65;46.90039;941.7213;;;;
2019/07/03 08:54:50;;;;;;;4.2;2.4;;;;;;;25.51;46.75586;941.7195;;;;
2019/07/03 08:57:26;;;;;;;6;2.6;;;;;;;25.39;48.86816;941.7634;;;;
2019/07/03 08:59:57;;;;;;;7.1;2.9;;;;;;;25.73;48.2334;941.8303;;;;
2019/07/03 09:02:35;;;;;;;4.2;2.7;;;;;;;25.69;46.05273;941.785;;;;
2019/07/03 09:04:54;;;;;;;6.8;3.1;;;;;;;25.33;47.35156;941.7856;;;;
2019/07/03 09:07:26;;;;;;;6.6;2.7;;;;;;;25.48;50.12012;941.8193;;;;
2019/07/03 09:09:49;;;;;;;5.2;3;;;;;;;25.68;48.44043;941.8514;;;;
2019/07/03 09:12:20;;;;;;;5.7;3.3;;;;;;;25.56;47.70605;941.7949;;;;
2019/07/03 09:14:53;;;;;;;5.2;2.8;;;;;;;25.76;47.51563;941.8218;;;;
2019/07/03 09:17:18;;;;;;;5.2;3;;;;;;;25.78;47.63477;941.8195;;;;
2019/07/03 09:23:04;;;;;;;6.1;3.2;;;;;;;25.16;47.59277;941.7191;;;;
2019/07/03 09:25:28;;;;;;;8.6;3.4;;;;;;;25.26;48.91406;941.8259;;;;
2019/07/03 09:28:00;;;;;;;7.1;3.1;;;;;;;25.11;48.37793;941.9225;;;;
2019/07/03 09:30:25;;;;;;;7.2;3.5;;;;;;;24.35;51.43066;941.8752;;;;
2019/07/03 09:32:54;;;;;;;6.5;3.3;;;;;;;24.67;49.875;941.9034;;;;
2019/07/03 09:35:28;;;;;;;6.8;3.6;;;;;;;24.76;49.46094;941.8209;;;;
2019/07/03 09:37:51;;;;;;;5.5;3.4;;;;;;;25.19;49.41309;941.8148;;;;
2019/07/03 09:40:18;;;;;;;6.1;3.5;;;;;;;25.09;48.72949;941.7773;;;;
2019/07/03 09:42:41;;;;;;;6.4;3.5;;;;;;;25.26;48.61719;941.7397;;;;
2019/07/03 09:45:06;;;;;;;5.3;3.9;;;;;;;25.29;49.5791;941.717;;;;
2019/07/03 09:47:33;;;;;;;7.7;4;;;;;;;25.12;49.88965;941.6736;;;;
2019/07/03 09:50:08;;;;;;;5;3.8;;;;;;;25.18;50.07324;941.6594;;;;
2019/07/03 09:52:31;;;;;;;8.2;4.1;;;;;;;25.05;51.33398;941.7048;;;;
2019/07/03 09:55:01;;;;;;;7.5;3.9;;;;;;;25.2;49.46191;941.7355;;;;
2019/07/03 09:57:26;;;;;;;7.1;4.1;;;;;;;25.16;50.55566;941.8273;;;;
2019/07/03 09:59:53;;;;;;;6.7;4.1;;;;;;;25.26;49.53809;941.7748;;;;
2019/07/03 10:02:23;;;;;;;7.9;3.9;;;;;;;25.38;49.87207;941.7908;;;;
2019/07/03 10:04:41;;;;;;;10.5;4.4;;;;;;;25.37;49.87012;941.7839;;;;
2019/07/03 10:07:09;;;;;;;7.2;4.1;;;;;;;25.28;50.70996;941.8016;;;;
2019/07/03 10:09:41;;;;;;;9.9;4.3;;;;;;;25.08;51.27832;941.8879;;;;
2019/07/03 10:12:07;;;;;;;5.7;4.2;;;;;;;24.91;51.03418;941.8469;;;;
2019/07/03 10:14:32;;;;;;;8.4;4.3;;;;;;;25.08;51.10059;941.8709;;;;
2019/07/03 10:16:59;;;;;;;6.5;4.7;;;;;;;24.78;51.03125;941.7784;;;;
2019/07/03 10:19:33;;;;;;;8.1;4.5;;;;;;;24.87;51.26563;941.8445;;;;
2019/07/03 10:22:00;;;;;;;7.2;4.7;;;;;;;24.64;51.00391;941.8166;;;;
2019/07/03 10:24:28;;;;;;;9.4;4.5;;;;;;;24.38;50.9502;941.8458;;;;
2019/07/03 10:26:53;;;;;;;7.5;4.4;;;;;;;24.18;52.91797;941.9221;;;;
2019/07/03 10:29:19;;;;;;;6.2;4.2;;;;;;;24.24;51.99414;941.7692;;;;
2019/07/03 10:31:42;;;;;;;8.1;4.3;;;;;;;24;52.23828;941.8428;;;;
2019/07/03 10:34:06;;;;;;;8.2;4.5;;;;;;;24.07;52.8584;941.8021;;;;
2019/07/03 10:36:33;;;;;;;8.5;4.8;;;;;;;23.49;54;941.7756;;;;
2019/07/03 10:38:58;;;;;;;6.6;4.5;;;;;;;23.57;54.24512;941.838;;;;
2019/07/03 10:41:24;;;;;;;8;4.5;;;;;;;23.47;54.32715;941.7997;;;;
2019/07/03 10:43:57;;;;;;;6.4;4.5;;;;;;;23.41;55.24805;941.8041;;;;
2019/07/03 10:46:27;;;;;;;7;4.3;;;;;;;23.42;54.70898;941.8239;;;;
2019/07/03 10:48:59;;;;;;;8.8;4.8;;;;;;;23.32;54.17969;941.8339;;;;
2019/07/03 10:51:24;;;;;;;6.6;4.7;;;;;;;23.26;54.68945;941.7815;;;;
2019/07/03 10:53:56;;;;;;;7.3;4.7;;;;;;;23.35;54.81738;941.8256;;;;
2019/07/03 10:56:27;;;;;;;12.9;5.1;;;;;;;23.34;56.13379;941.8917;;;;
2019/07/03 10:58:54;;;;;;;9.7;4.6;;;;;;;23.37;55.51465;941.9395;;;;
2019/07/03 11:01:21;;;;;;;6.4;4.5;;;;;;;23.44;55.81738;941.9471;;;;
2019/07/03 11:03:53;;;;;;;6.9;4.4;;;;;;;23.29;55.05762;941.9292;;;;
2019/07/03 11:06:19;;;;;;;9;4.6;;;;;;;23.14;56.28418;941.8933;;;;
2019/07/03 11:08:47;;;;;;;6.6;4.2;;;;;;;23.44;54.48828;941.9211;;;;
2019/07/03 11:11:14;;;;;;;8.3;4.5;;;;;;;23.57;53.76172;941.9302;;;;
2019/07/03 11:13:43;;;;;;;7.1;4.2;;;;;;;23.49;55.3418;941.8705;;;;
2019/07/03 11:16:15;;;;;;;9;4.3;;;;;;;23.59;55.01172;941.992;;;;
2019/07/03 11:18:40;;;;;;;8;4.3;;;;;;;23.41;54.35449;941.9771;;;;
2019/07/03 11:21:09;;;;;;;6.7;4.3;;;;;;;23.38;55.65527;941.9905;;;;
2019/07/03 11:23:34;;;;;;;6.9;4.1;;;;;;;23.4;55.65918;941.8702;;;;
2019/07/03 11:26:05;;;;;;;7.1;4.2;;;;;;;23.47;55.71484;941.8958;;;;
2019/07/03 11:28:37;;;;;;;6.6;4.2;;;;;;;23.3;54.45898;941.8711;;;;
2019/07/03 11:31:07;;;;;;;12;5.4;;;;;;;23.26;54.4082;941.9465;;;;
2019/07/03 11:33:55;;;;;;;19;4.9;;;;;;;23.01;56.12598;941.9122;;;;
2019/07/03 11:36:28;;;;;;;7.4;3.8;;;;;;;23.53;55.92188;941.9263;;;;
2019/07/03 11:38:57;;;;;;;8.3;4;;;;;;;23.62;53.93457;941.8915;;;;
2019/07/03 11:41:21;;;;;;;8;3.9;;;;;;;23.76;53.10352;941.9764;;;;
2019/07/03 11:43:46;;;;;;;6.7;3.8;;;;;;;23.77;52.78711;941.9883;;;;
2019/07/03 11:46:16;;;;;;;9.7;3.7;;;;;;;23.91;52.08496;941.9641;;;;
2019/07/03 11:48:39;;;;;;;8.1;3.8;;;;;;;24.05;52.50195;941.9836;;;;
2019/07/03 11:55:25;;;;;;;19;4.6;;;;;;;23.76;54.33789;942.0245;;;;
2019/07/03 11:57:47;;;;;;;7.2;3.6;;;;;;;23.69;53.43652;941.9992;;;;
2019/07/03 12:00:24;;;;;;;8.6;3.7;;;;;;;23.88;53.88281;942.0425;;;;
2019/07/03 12:02:45;;;;;;;7;3.5;;;;;;;24.02;54.9248;942.0438;;;;
2019/07/03 12:05:19;;;;;;;9.6;3.6;;;;;;;24.33;51.78223;942.0126;;;;
2019/07/03 12:07:45;;;;;;;10.7;3.7;;;;;;;24.51;50.75293;941.9875;;;;
2019/07/03 12:10:17;;;;;;;6;3.4;;;;;;;24.99;50.25293;941.9961;;;;
2019/07/03 12:12:43;;;;;;;6.2;3.4;;;;;;;25.12;49.02832;941.9333;;;;
2019/07/03 12:15:12;;;;;;;9;3.2;;;;;;;25.42;48.81348;941.9456;;;;
2019/07/03 12:17:40;;;;;;;6.4;3.3;;;;;;;25.36;49.60938;941.9598;;;;
2019/07/03 12:20:06;;;;;;;5.8;3;;;;;;;25.55;50.59961;941.9316;;;;
2019/07/03 12:22:36;;;;;;;6.4;3.1;;;;;;;25.66;48.16602;941.8625;;;;
2019/07/03 12:25:12;;;;;;;6.6;3.2;;;;;;;25.66;50.02051;941.9681;;;;
2019/07/03 12:27:30;;;;;;;6.5;3;;;;;;;25.65;49.45215;941.9994;;;;
2019/07/03 12:29:59;;;;;;;6.5;3.4;;;;;;;25.75;48.67188;942.025;;;;
2019/07/03 12:32:28;;;;;;;4.9;3.3;;;;;;;25.9;48.0498;941.9881;;;;
2019/07/03 12:34:58;;;;;;;6.3;3.1;;;;;;;26.3;46.9209;941.9416;;;;
2019/07/03 12:37:19;;;;;;;8.1;3.1;;;;;;;26.78;47.20801;941.8685;;;;
2019/07/03 12:43:00;;;;;;;6.9;3;;;;;;;27.29;47.52344;941.8554;;;;
2019/07/03 12:45:27;;;;;;;4.4;3;;;;;;;27.64;45.22168;941.8926;;;;
2019/07/03 12:48:02;;;;;;;5;2.9;;;;;;;27.94;43.625;941.7971;;;;
2019/07/03 12:50:27;;;;;;;5.4;3.1;;;;;;;27.84;43.46094;941.843;;;;
2019/07/03 12:52:57;;;;;;;4.9;3.1;;;;;;;27.88;43.64258;941.6838;;;;
2019/07/03 12:55:22;;;;;;;7.4;3.2;;;;;;;27.8;43.84863;941.7545;;;;
2019/07/03 12:57:46;;;;;;;6.7;3;;;;;;;27.31;45.29492;941.7693;;;;
2019/07/03 13:00:14;;;;;;;5.5;2.9;;;;;;;27.47;44.33887;941.692;;;;
2019/07/03 13:02:39;;;;;;;4;2.8;;;;;;;27.72;41.84668;941.6959;;;;
2019/07/03 13:05:09;;;;;;;6.3;2.9;;;;;;;27.88;44.62793;941.6234;;;;
2019/07/03 13:07:38;;;;;;;7.3;3;;;;;;;28.05;44.02734;941.6493;;;;
2019/07/03 13:10:07;;;;;;;5.7;3;;;;;;;27.73;46.06152;941.6082;;;;
2019/07/03 13:12:50;;;;;;;4.1;3;;;;;;;27.86;43.95996;941.5525;;;;
2019/07/03 13:15:14;;;;;;;6.9;2.9;;;;;;;27.95;42.63965;941.5549;;;;
2019/07/03 13:17:47;;;;;;;5.4;3;;;;;;;27.91;41.35254;941.5452;;;;
2019/07/03 13:20:13;;;;;;;6.4;3.4;;;;;;;27.91;42.58789;941.5098;;;;
2019/07/03 13:22:36;;;;;;;5.2;3.5;;;;;;;27.94;44.19531;941.4736;;;;
2019/07/03 13:25:08;;;;;;;5.3;3.1;;;;;;;28.08;44.26758;941.4478;;;;
2019/07/03 13:27:41;;;;;;;5.3;2.9;;;;;;;27.84;43.85254;941.4501;;;;
2019/07/03 13:30:09;;;;;;;4.1;3;;;;;;;27.34;43.62598;941.3889;;;;
2019/07/03 13:32:34;;;;;;;5.1;3;;;;;;;26.89;44.15039;941.3553;;;;
2019/07/03 13:34:58;;;;;;;5.9;3.2;;;;;;;27.23;44.50391;941.2802;;;;
2019/07/03 13:37:37;;;;;;;7.3;3.1;;;;;;;27.24;45.95215;941.3273;;;;
2019/07/03 13:40:03;;;;;;;7.4;3.3;;;;;;;27.2;43.49316;941.3329;;;;
2019/07/03 13:42:29;;;;;;;5;3;;;;;;;27.23;43.16504;941.2579;;;;
2019/07/03 13:45:02;;;;;;;6.2;3.1;;;;;;;27.6;43.66309;941.2224;;;;
2019/07/03 13:47:28;;;;;;;6.3;2.9;;;;;;;27.77;44.22559;941.2696;;;;
2019/07/03 13:49:56;;;;;;;6.1;2.8;;;;;;;27.86;42.06152;941.2814;;;;
2019/07/03 13:52:24;;;;;;;4.8;3.2;;;;;;;27.77;46.17188;941.301;;;;
2019/07/03 13:54:53;;;;;;;8.6;3;;;;;;;27.46;45.14453;941.2875;;;;
2019/07/03 13:57:20;;;;;;;6;3.1;;;;;;;27.56;43.72949;941.2808;;;;
2019/07/03 13:59:46;;;;;;;7.4;3;;;;;;;27.85;45.4209;941.3101;;;;
2019/07/03 14:02:11;;;;;;;9.6;3.1;;;;;;;27.15;43.31055;941.2748;;;;
2019/07/03 14:04:38;;;;;;;6.6;2.6;;;;;;;27.11;45.44141;941.2467;;;;
2019/07/03 14:07:02;;;;;;;6.9;2.8;;;;;;;27.15;45.69238;941.3022;;;;
2019/07/03 14:09:28;;;;;;;5.4;2.7;;;;;;;27.22;43.16309;941.3345;;;;
2019/07/03 14:11:52;;;;;;;8.6;3.6;;;;;;;26.78;42.7666;941.275;;;;
2019/07/03 14:14:21;;;;;;;7.9;3.1;;;;;;;26.97;45.77051;941.3069;;;;
2019/07/03 14:16:58;;;;;;;8.2;3.2;;;;;;;26.59;44.42871;941.2742;;;;
2019/07/03 14:19:25;;;;;;;6.2;2.9;;;;;;;26.96;45.12891;941.3132;;;;
2019/07/03 14:21:50;;;;;;;6.2;2.7;;;;;;;27.02;44.99316;941.2294;;;;
2019/07/03 14:24:14;;;;;;;8.9;3;;;;;;;27.17;44.08301;941.1506;;;;
2019/07/03 14:26:39;;;;;;;6.7;2.8;;;;;;;27.19;43.84863;941.2073;;;;
2019/07/03 14:29:12;;;;;;;5.3;2.8;;;;;;;27.48;45.94043;941.1895;;;;
2019/07/03 14:31:45;;;;;;;5.8;2.6;;;;;;;27.41;44.59473;941.0941;;;;
2019/07/03 14:34:13;;;;;;;6.2;2.7;;;;;;;27.3;43.9541;941.1423;;;;
2019/07/03 14:36:42;;;;;;;3.9;2.4;;;;;;;27.55;44.5957;941.0975;;;;
2019/07/03 14:39:12;;;;;;;5.4;2.6;;;;;;;27.42;44.0127;941.1766;;;;